Time;durP1;ratioP1;P1;durP2;ratioP2;P2;SDS_P1;SDS_P2;PMS_P1;PMS_P2;Temp;Humidity;BMP_temperature;BMP_pressure;BME280_temperature;BME280_humidity;BME280_pressure;Samples;Min_cycle;Max_cycle;Signal;HPM_P1;HPM_P2
2021/01/29 00:01:15;;;;;;;5.18;1.88;;;;;;;;;;4993328;28;20452;-72
2021/01/29 00:03:40;;;;;;;3.38;1.50;;;;;;;;;;4993775;28;20427;-71
2021/01/29 00:06:06;;;;;;;4.60;2.10;;;;;;;;;;4993649;28;20042;-72
2021/01/29 00:08:33;;;;;;;4.00;1.45;;;;;;;;;;5010991;28;20376;-72
2021/01/29 00:10:58;;;;;;;4.63;2.17;;;;;;;;;;5014802;28;20445;-72
2021/01/29 00:13:25;;;;;;;5.10;1.70;;;;;;;;;;4981376;28;20108;-72
2021/01/29 00:15:50;;;;;;;4.80;1.75;;;;;;;;;;4997200;28;20236;-72
2021/01/29 00:18:16;;;;;;;3.53;1.63;;;;;;;;;;4997216;28;20124;-72
2021/01/29 00:20:41;;;;;;;3.80;2.13;;;;;;;;;;5014841;28;20030;-72
2021/01/29 00:23:07;;;;;;;3.45;1.50;;;;;;;;;;5013015;28;20050;-72
2021/01/29 00:25:39;;;;;;;4.60;1.88;;;;;;;;;;4997609;28;20404;-72
2021/01/29 00:28:05;;;;;;;3.55;1.92;;;;;;;;;;4997057;28;20034;-72
2021/01/29 00:30:31;;;;;;;2.65;1.30;;;;;;;;;;5014289;28;20041;-72
2021/01/29 00:32:57;;;;;;;4.13;1.60;;;;;;;;;;4996942;28;20033;-72
2021/01/29 00:35:23;;;;;;;3.25;1.30;;;;;;;;;;4997181;28;20025;-72
2021/01/29 00:37:48;;;;;;;4.20;1.67;;;;;;;;;;4996927;28;20030;-72
2021/01/29 00:40:14;;;;;;;4.22;1.55;;;;;;;;;;4997002;28;20710;-73
2021/01/29 00:42:40;;;;;;;5.22;1.58;;;;;;;;;;4996928;28;20060;-74
2021/01/29 00:45:07;;;;;;;4.63;1.60;;;;;;;;;;4996309;28;20050;-74
2021/01/29 00:47:32;;;;;;;3.58;1.40;;;;;;;;;;4997184;28;20053;-74
2021/01/29 00:49:57;;;;;;;3.13;1.20;;;;;;;;;;4996645;28;20038;-74
2021/01/29 00:52:23;;;;;;;3.88;1.52;;;;;;;;;;4980338;28;20369;-74
2021/01/29 00:54:48;;;;;;;4.00;1.60;;;;;;;;;;5005335;28;20045;-74
2021/01/29 00:57:14;;;;;;;3.60;1.33;;;;;;;;;;5016132;28;20395;-75
2021/01/29 00:59:39;;;;;;;2.92;1.10;;;;;;;;;;5016329;28;20030;-74
2021/01/29 01:02:05;;;;;;;3.55;1.45;;;;;;;;;;5016123;28;20388;-74
2021/01/29 01:04:30;;;;;;;3.53;1.20;;;;;;;;;;5016126;28;20418;-75
2021/01/29 01:06:56;;;;;;;3.58;1.63;;;;;;;;;;5015747;28;20072;-75
2021/01/29 01:09:21;;;;;;;3.05;0.98;;;;;;;;;;5032219;28;20041;-75
2021/01/29 01:11:46;;;;;;;3.40;1.40;;;;;;;;;;5032556;28;20376;-75
2021/01/29 01:14:12;;;;;;;3.75;1.05;;;;;;;;;;5015324;28;20039;-75
2021/01/29 01:16:38;;;;;;;3.17;1.30;;;;;;;;;;5011647;28;20397;-75
2021/01/29 01:19:03;;;;;;;2.55;0.73;;;;;;;;;;4995761;28;20507;-74
2021/01/29 01:21:29;;;;;;;3.55;1.13;;;;;;;;;;5012735;28;20399;-74
2021/01/29 01:23:54;;;;;;;3.47;1.48;;;;;;;;;;4995615;28;20423;-74
2021/01/29 01:26:19;;;;;;;3.22;1.17;;;;;;;;;;4996026;28;20216;-74
2021/01/29 01:28:45;;;;;;;4.85;1.85;;;;;;;;;;4995671;28;20518;-74
2021/01/29 01:31:10;;;;;;;2.22;0.90;;;;;;;;;;4995822;28;20451;-74
2021/01/29 01:33:36;;;;;;;2.40;1.08;;;;;;;;;;5012177;28;20057;-75
2021/01/29 01:36:01;;;;;;;2.45;1.23;;;;;;;;;;4995823;28;20419;-75
2021/01/29 01:38:27;;;;;;;2.53;1.27;;;;;;;;;;4996005;28;20112;-75
2021/01/29 01:40:52;;;;;;;4.47;1.52;;;;;;;;;;5012086;28;20523;-75
2021/01/29 01:43:18;;;;;;;3.42;1.17;;;;;;;;;;5011799;28;20048;-74
2021/01/29 01:46:02;;;;;;;2.88;0.95;;;;;;;;;;4995876;28;20030;-75
2021/01/29 01:48:46;;;;;;;2.50;0.98;;;;;;;;;;5013142;28;20561;-74
2021/01/29 01:51:15;;;;;;;3.47;0.85;;;;;;;;;;5013735;28;20042;-74
2021/01/29 01:53:43;;;;;;;1.80;0.80;;;;;;;;;;4992306;28;20046;-74
2021/01/29 01:56:45;;;;;;;3.55;0.90;;;;;;;;;;4992070;28;20058;-75
2021/01/29 01:59:15;;;;;;;2.67;0.90;;;;;;;;;;5004786;28;20048;-74
2021/01/29 02:01:41;;;;;;;2.63;0.82;;;;;;;;;;4979669;28;20037;-73
2021/01/29 02:04:06;;;;;;;3.13;1.00;;;;;;;;;;4995162;28;20044;-73
2021/01/29 02:06:39;;;;;;;3.50;1.23;;;;;;;;;;5027214;28;20442;-73
2021/01/29 02:09:06;;;;;;;2.30;0.82;;;;;;;;;;5015700;28;20419;-73
2021/01/29 02:11:32;;;;;;;3.33;0.90;;;;;;;;;;5030976;28;20040;-73
2021/01/29 02:13:57;;;;;;;2.45;0.73;;;;;;;;;;5014757;28;20120;-73
2021/01/29 02:16:30;;;;;;;3.22;0.60;;;;;;;;;;5031631;28;20426;-73
2021/01/29 02:19:54;;;;;;;2.47;0.73;;;;;;;;;;4976694;28;20113;-73
2021/01/29 02:22:41;;;;;;;3.10;1.08;;;;;;;;;;4951494;29;20521;-73
2021/01/29 02:25:31;;;;;;;3.10;1.00;;;;;;;;;;4951379;29;20031;-73
2021/01/29 02:27:57;;;;;;;3.10;1.05;;;;;;;;;;4989814;28;20505;-74
2021/01/29 02:30:37;;;;;;;1.40;0.50;;;;;;;;;;4962680;28;20030;-75
2021/01/29 02:33:39;;;;;;;2.10;0.68;;;;;;;;;;5028496;28;20072;-75
2021/01/29 02:36:31;;;;;;;1.27;0.50;;;;;;;;;;5031415;28;20036;-75
2021/01/29 02:39:02;;;;;;;1.83;0.75;;;;;;;;;;4997776;28;20042;-76
2021/01/29 02:42:04;;;;;;;1.83;0.60;;;;;;;;;;5012483;28;20088;-76
2021/01/29 02:44:44;;;;;;;2.47;0.80;;;;;;;;;;5011375;28;20484;-76
2021/01/29 02:47:28;;;;;;;1.63;0.60;;;;;;;;;;4992438;28;20401;-76
2021/01/29 02:50:24;;;;;;;1.70;0.55;;;;;;;;;;4974917;28;20554;-75
2021/01/29 02:52:59;;;;;;;1.80;0.70;;;;;;;;;;4984544;28;20034;-75
2021/01/29 02:55:24;;;;;;;1.58;0.60;;;;;;;;;;5010575;28;20084;-75
2021/01/29 02:58:17;;;;;;;1.52;0.60;;;;;;;;;;5012964;28;20049;-75
2021/01/29 03:00:45;;;;;;;2.17;0.50;;;;;;;;;;5010988;28;20026;-75
2021/01/29 03:03:25;;;;;;;1.67;0.60;;;;;;;;;;5011498;28;20053;-75
2021/01/29 03:05:55;;;;;;;1.08;0.40;;;;;;;;;;4996260;28;20083;-75
2021/01/29 03:08:26;;;;;;;1.83;0.60;;;;;;;;;;4994688;28;20053;-75
2021/01/29 03:11:12;;;;;;;1.73;0.55;;;;;;;;;;4994562;28;20064;-75
2021/01/29 03:13:45;;;;;;;2.38;0.70;;;;;;;;;;5011905;28;20045;-74
2021/01/29 03:16:19;;;;;;;2.08;0.50;;;;;;;;;;4994579;28;20084;-74
2021/01/29 03:19:01;;;;;;;0.82;0.28;;;;;;;;;;4994635;28;20038;-73
2021/01/29 03:21:39;;;;;;;1.75;0.57;;;;;;;;;;4994116;28;20037;-74
2021/01/29 03:24:26;;;;;;;1.80;0.40;;;;;;;;;;4993903;28;20545;-75
2021/01/29 03:26:55;;;;;;;1.10;0.52;;;;;;;;;;5012055;28;20065;-75
2021/01/29 03:29:21;;;;;;;1.25;0.43;;;;;;;;;;4978001;28;20034;-74
2021/01/29 03:31:47;;;;;;;0.85;0.30;;;;;;;;;;4994018;28;20384;-74
2021/01/29 03:34:35;;;;;;;1.75;0.63;;;;;;;;;;4978167;28;20116;-74
2021/01/29 03:37:32;;;;;;;2.08;0.55;;;;;;;;;;5009574;28;20050;-74
2021/01/29 03:39:58;;;;;;;1.58;0.50;;;;;;;;;;4984305;28;20068;-74
2021/01/29 03:42:31;;;;;;;1.20;0.30;;;;;;;;;;4994863;28;20507;-74
2021/01/29 03:45:02;;;;;;;2.78;0.93;;;;;;;;;;4997931;28;20113;-74
2021/01/29 03:47:52;;;;;;;2.80;0.40;;;;;;;;;;5015665;28;20030;-74
2021/01/29 03:50:27;;;;;;;1.15;0.57;;;;;;;;;;5014102;28;20037;-74
2021/01/29 03:53:24;;;;;;;1.58;0.40;;;;;;;;;;5018269;28;20065;-75
2021/01/29 03:56:07;;;;;;;0.85;0.30;;;;;;;;;;5034036;28;20099;-75
2021/01/29 03:58:44;;;;;;;1.20;0.30;;;;;;;;;;5017624;28;20061;-75
2021/01/29 04:01:28;;;;;;;1.25;0.52;;;;;;;;;;5017629;28;20070;-74
2021/01/29 04:04:06;;;;;;;0.70;0.20;;;;;;;;;;5018763;28;20037;-75
2021/01/29 04:06:43;;;;;;;1.48;0.43;;;;;;;;;;5034489;28;20037;-74
2021/01/29 04:09:25;;;;;;;1.15;0.35;;;;;;;;;;5018319;28;20033;-74
2021/01/29 04:12:00;;;;;;;1.95;0.30;;;;;;;;;;5017619;28;20048;-74
2021/01/29 04:14:37;;;;;;;0.82;0.30;;;;;;;;;;5017109;28;20025;-74
2021/01/29 04:17:06;;;;;;;2.42;0.35;;;;;;;;;;5029184;28;20040;-73
2021/01/29 04:19:32;;;;;;;0.88;0.20;;;;;;;;;;4997597;28;20040;-74
2021/01/29 04:22:00;;;;;;;0.63;0.20;;;;;;;;;;4998569;28;20030;-73
2021/01/29 04:24:40;;;;;;;0.77;0.22;;;;;;;;;;4997453;28;20394;-73
2021/01/29 04:27:20;;;;;;;0.63;0.35;;;;;;;;;;4981645;28;20496;-73
2021/01/29 04:29:55;;;;;;;1.33;0.30;;;;;;;;;;4998079;28;20483;-75
2021/01/29 04:32:22;;;;;;;0.60;0.20;;;;;;;;;;4981276;28;20034;-75
2021/01/29 04:34:51;;;;;;;1.15;0.32;;;;;;;;;;4980887;28;20109;-75
2021/01/29 04:37:28;;;;;;;0.55;0.20;;;;;;;;;;4996851;28;20037;-74
2021/01/29 04:39:57;;;;;;;1.10;0.30;;;;;;;;;;4997158;28;20036;-74
2021/01/29 04:42:49;;;;;;;0.93;0.20;;;;;;;;;;4998457;28;20069;-74
2021/01/29 04:45:24;;;;;;;0.90;0.30;;;;;;;;;;4978702;28;20026;-74
2021/01/29 04:48:38;;;;;;;0.88;0.25;;;;;;;;;;4993674;28;20117;-74
2021/01/29 04:51:27;;;;;;;0.60;0.20;;;;;;;;;;4960870;28;20050;-75
2021/01/29 04:54:30;;;;;;;1.27;0.20;;;;;;;;;;5007792;28;20445;-74
2021/01/29 04:57:12;;;;;;;0.50;0.20;;;;;;;;;;5013842;28;20025;-74
2021/01/29 05:00:22;;;;;;;0.45;0.10;;;;;;;;;;5013547;28;20430;-75
2021/01/29 05:03:08;;;;;;;0.80;0.38;;;;;;;;;;5013786;28;20633;-75
2021/01/29 05:05:55;;;;;;;0.50;0.20;;;;;;;;;;5012588;28;20042;-75
2021/01/29 05:08:32;;;;;;;0.75;0.20;;;;;;;;;;5014158;28;20037;-74
2021/01/29 05:11:19;;;;;;;1.13;0.32;;;;;;;;;;5013698;28;20034;-73
2021/01/29 05:13:44;;;;;;;0.98;0.30;;;;;;;;;;5013858;28;20034;-73
2021/01/29 05:16:48;;;;;;;0.40;0.20;;;;;;;;;;5014768;28;20080;-73
2021/01/29 05:19:49;;;;;;;1.58;0.20;;;;;;;;;;5006470;28;20037;-73
2021/01/29 05:22:37;;;;;;;0.50;0.10;;;;;;;;;;4962452;28;20046;-73
2021/01/29 05:25:34;;;;;;;1.05;0.28;;;;;;;;;;4993415;28;20030;-73
2021/01/29 05:27:59;;;;;;;1.23;0.30;;;;;;;;;;5002754;28;20525;-73
2021/01/29 05:30:24;;;;;;;0.85;0.20;;;;;;;;;;5000469;28;20030;-73
2021/01/29 05:33:27;;;;;;;0.68;0.32;;;;;;;;;;5013479;28;20038;-73
2021/01/29 05:36:09;;;;;;;1.25;0.15;;;;;;;;;;5013311;28;20041;-73
2021/01/29 05:38:52;;;;;;;0.80;0.28;;;;;;;;;;5013202;28;20496;-73
2021/01/29 05:42:03;;;;;;;1.70;0.30;;;;;;;;;;5013265;28;20104;-73
2021/01/29 05:45:09;;;;;;;0.85;0.32;;;;;;;;;;5004834;28;20093;-73
2021/01/29 05:47:36;;;;;;;0.50;0.20;;;;;;;;;;5006139;28;20034;-72
2021/01/29 05:50:07;;;;;;;0.40;0.10;;;;;;;;;;5000536;28;20049;-72
2021/01/29 05:53:00;;;;;;;0.53;0.10;;;;;;;;;;5012043;28;20030;-74
2021/01/29 05:55:32;;;;;;;0.57;0.17;;;;;;;;;;5013172;28;20062;-74
2021/01/29 05:58:25;;;;;;;0.98;0.25;;;;;;;;;;4995705;28;20503;-74
2021/01/29 06:01:12;;;;;;;0.40;0.20;;;;;;;;;;5013144;28;20488;-74
2021/01/29 06:04:15;;;;;;;0.82;0.20;;;;;;;;;;5012451;28;20124;-74
2021/01/29 06:06:46;;;;;;;1.13;0.20;;;;;;;;;;5013242;28;20034;-73
2021/01/29 06:09:49;;;;;;;0.55;0.20;;;;;;;;;;5011729;28;20045;-73
2021/01/29 06:12:35;;;;;;;0.40;0.15;;;;;;;;;;5012998;28;20025;-73
2021/01/29 06:15:25;;;;;;;1.83;0.30;;;;;;;;;;5012276;28;20038;-73
2021/01/29 06:18:00;;;;;;;1.08;0.28;;;;;;;;;;5011544;28;20083;-73
2021/01/29 06:20:50;;;;;;;0.88;0.17;;;;;;;;;;5011576;28;20128;-73
2021/01/29 06:23:21;;;;;;;1.08;0.30;;;;;;;;;;5011229;28;20105;-73
2021/01/29 06:26:11;;;;;;;0.88;0.10;;;;;;;;;;5012452;28;20484;-72
2021/01/29 06:28:55;;;;;;;0.73;0.13;;;;;;;;;;5011311;28;20425;-72
2021/01/29 06:31:29;;;;;;;1.08;0.20;;;;;;;;;;5010562;28;20105;-72
2021/01/29 06:34:07;;;;;;;1.00;0.25;;;;;;;;;;5011991;28;20030;-72
2021/01/29 06:36:41;;;;;;;1.45;0.20;;;;;;;;;;5012142;28;20065;-72
2021/01/29 06:39:21;;;;;;;0.90;0.25;;;;;;;;;;5012084;28;20492;-72
2021/01/29 06:42:05;;;;;;;1.40;0.30;;;;;;;;;;5012383;28;20029;-72
2021/01/29 06:44:48;;;;;;;2.63;0.45;;;;;;;;;;5012252;28;20045;-72
2021/01/29 06:47:33;;;;;;;0.63;0.15;;;;;;;;;;4992301;28;20084;-72
2021/01/29 06:50:05;;;;;;;1.42;0.22;;;;;;;;;;4991174;28;20081;-72
2021/01/29 06:53:04;;;;;;;1.33;0.32;;;;;;;;;;4995727;28;20041;-72
2021/01/29 06:56:20;;;;;;;2.60;0.47;;;;;;;;;;5010991;28;20036;-72
2021/01/29 06:59:18;;;;;;;1.27;0.30;;;;;;;;;;4994039;28;20112;-72
2021/01/29 07:01:47;;;;;;;0.60;0.20;;;;;;;;;;5011612;28;20033;-72
2021/01/29 07:04:47;;;;;;;1.80;0.38;;;;;;;;;;5010533;28;20038;-72
2021/01/29 07:07:21;;;;;;;1.77;0.40;;;;;;;;;;5011658;28;20030;-72
2021/01/29 07:10:05;;;;;;;1.20;0.20;;;;;;;;;;5011997;28;20033;-72
2021/01/29 07:12:49;;;;;;;2.08;0.40;;;;;;;;;;5012329;28;20041;-72
2021/01/29 07:15:42;;;;;;;2.45;0.70;;;;;;;;;;5010424;28;20037;-72
2021/01/29 07:18:42;;;;;;;2.42;0.45;;;;;;;;;;5015460;28;20034;-72
2021/01/29 07:21:21;;;;;;;2.28;0.50;;;;;;;;;;4957380;29;20198;-72
2021/01/29 07:23:58;;;;;;;1.48;0.50;;;;;;;;;;5008215;28;20045;-72
2021/01/29 07:26:34;;;;;;;1.92;0.40;;;;;;;;;;5018095;28;20042;-71
2021/01/29 07:29:35;;;;;;;2.00;0.38;;;;;;;;;;5036583;28;20029;-72
2021/01/29 07:32:06;;;;;;;2.70;0.50;;;;;;;;;;4987278;28;20136;-71
2021/01/29 07:34:41;;;;;;;2.30;0.70;;;;;;;;;;5017375;28;20394;-71
2021/01/29 07:37:31;;;;;;;3.05;0.40;;;;;;;;;;5001669;28;20029;-71
2021/01/29 07:40:09;;;;;;;3.53;0.60;;;;;;;;;;5018338;28;20034;-71
2021/01/29 07:43:19;;;;;;;2.85;1.23;;;;;;;;;;5016880;28;20038;-71
2021/01/29 07:45:50;;;;;;;2.10;0.80;;;;;;;;;;4960221;28;20035;-71
2021/01/29 07:49:02;;;;;;;4.30;0.90;;;;;;;;;;4976981;28;20031;-71
2021/01/29 07:51:46;;;;;;;2.60;0.50;;;;;;;;;;4952045;28;20051;-71
2021/01/29 07:54:36;;;;;;;4.10;0.80;;;;;;;;;;4974704;28;20561;-71
2021/01/29 07:57:53;;;;;;;3.17;0.60;;;;;;;;;;5022205;28;20050;-71
2021/01/29 08:00:43;;;;;;;3.58;1.05;;;;;;;;;;4996746;28;20062;-71
2021/01/29 08:03:42;;;;;;;2.50;0.40;;;;;;;;;;5017401;28;20052;-71
2021/01/29 08:06:28;;;;;;;3.78;1.13;;;;;;;;;;5017945;28;20553;-71
2021/01/29 08:09:18;;;;;;;3.65;1.08;;;;;;;;;;5001869;28;20038;-71
2021/01/29 08:11:47;;;;;;;3.80;0.80;;;;;;;;;;5001787;28;20038;-71
2021/01/29 08:14:41;;;;;;;2.75;0.65;;;;;;;;;;5000872;28;20037;-71
2021/01/29 08:17:18;;;;;;;3.20;1.02;;;;;;;;;;5017745;28;20052;-71
2021/01/29 08:20:25;;;;;;;3.58;0.70;;;;;;;;;;5028087;28;20045;-71
2021/01/29 08:23:10;;;;;;;3.42;1.13;;;;;;;;;;5007637;28;20065;-71
2021/01/29 08:25:53;;;;;;;4.05;1.33;;;;;;;;;;5036437;28;20053;-71
2021/01/29 08:28:56;;;;;;;4.20;1.02;;;;;;;;;;5037237;28;20030;-72
2021/01/29 08:31:45;;;;;;;4.90;1.10;;;;;;;;;;5019787;28;20052;-71
2021/01/29 08:34:10;;;;;;;4.60;1.10;;;;;;;;;;5013335;28;20095;-71
2021/01/29 08:37:08;;;;;;;5.50;1.42;;;;;;;;;;5014399;28;20034;-72
2021/01/29 08:39:38;;;;;;;7.65;1.50;;;;;;;;;;5005064;28;20033;-73
2021/01/29 08:42:41;;;;;;;8.18;1.13;;;;;;;;;;5027689;28;20053;-73
2021/01/29 08:45:21;;;;;;;8.50;1.25;;;;;;;;;;5026702;28;20089;-73
2021/01/29 08:47:56;;;;;;;7.78;3.10;;;;;;;;;;5012441;28;20586;-72
2021/01/29 08:50:32;;;;;;;7.88;3.38;;;;;;;;;;5014099;28;20109;-73
2021/01/29 08:53:13;;;;;;;9.25;2.40;;;;;;;;;;4997313;28;20045;-73
2021/01/29 08:56:08;;;;;;;8.77;2.33;;;;;;;;;;5014178;28;20075;-73
2021/01/29 08:58:40;;;;;;;9.93;2.40;;;;;;;;;;5011027;28;20396;-73
2021/01/29 09:01:14;;;;;;;9.15;2.80;;;;;;;;;;4996733;28;20448;-73
2021/01/29 09:03:45;;;;;;;8.88;2.47;;;;;;;;;;4996718;28;20040;-73
2021/01/29 09:06:17;;;;;;;8.85;2.90;;;;;;;;;;4996710;28;20095;-73
2021/01/29 09:08:42;;;;;;;6.55;1.77;;;;;;;;;;5016883;28;20056;-73
2021/01/29 09:11:58;;;;;;;7.68;2.20;;;;;;;;;;5015642;28;20472;-73
2021/01/29 09:14:31;;;;;;;9.32;3.13;;;;;;;;;;5025254;28;20041;-73
2021/01/29 09:17:00;;;;;;;6.68;2.25;;;;;;;;;;5028020;28;20105;-73
2021/01/29 09:19:25;;;;;;;9.07;2.40;;;;;;;;;;4996254;28;20044;-73
2021/01/29 09:22:30;;;;;;;6.70;2.22;;;;;;;;;;4996941;28;20030;-72
2021/01/29 09:24:56;;;;;;;6.30;2.15;;;;;;;;;;5013060;28;20480;-73
2021/01/29 09:27:50;;;;;;;11.00;2.97;;;;;;;;;;5013911;28;20045;-73
2021/01/29 09:30:24;;;;;;;6.40;2.25;;;;;;;;;;4995954;28;20392;-73
2021/01/29 09:32:55;;;;;;;5.75;2.40;;;;;;;;;;5011912;28;20392;-73
2021/01/29 09:35:28;;;;;;;6.82;2.10;;;;;;;;;;4979982;28;20042;-73
2021/01/29 09:37:54;;;;;;;10.27;2.75;;;;;;;;;;5013470;28;20046;-72
2021/01/29 09:40:29;;;;;;;7.63;2.63;;;;;;;;;;4995667;28;20386;-73
2021/01/29 09:43:44;;;;;;;7.32;2.65;;;;;;;;;;4980771;28;20034;-73
2021/01/29 09:46:09;;;;;;;6.68;2.33;;;;;;;;;;4974853;28;20038;-72
2021/01/29 09:48:36;;;;;;;8.93;2.65;;;;;;;;;;4991207;28;20045;-73
2021/01/29 09:51:25;;;;;;;7.55;2.53;;;;;;;;;;5002408;28;20172;-73
2021/01/29 09:54:28;;;;;;;9.27;2.88;;;;;;;;;;5008520;28;20132;-79
2021/01/29 09:57:00;;;;;;;10.38;3.08;;;;;;;;;;4993057;28;20466;-79
2021/01/29 09:59:57;;;;;;;6.53;2.20;;;;;;;;;;4963577;28;20484;-78
2021/01/29 10:02:48;;;;;;;6.28;2.17;;;;;;;;;;5011517;28;20084;-77
2021/01/29 10:05:27;;;;;;;9.15;2.70;;;;;;;;;;4973584;28;20066;-77
2021/01/29 10:07:58;;;;;;;6.95;2.15;;;;;;;;;;5012015;28;20030;-76
2021/01/29 10:10:32;;;;;;;7.05;2.30;;;;;;;;;;5015055;28;20038;-77
2021/01/29 10:13:19;;;;;;;9.40;2.38;;;;;;;;;;5003203;28;20034;-77
2021/01/29 10:15:46;;;;;;;8.30;2.13;;;;;;;;;;4961538;28;20080;-77
2021/01/29 10:18:25;;;;;;;6.78;2.30;;;;;;;;;;4960072;28;20084;-78
2021/01/29 10:20:50;;;;;;;7.82;2.22;;;;;;;;;;4992073;28;20050;-76
2021/01/29 10:23:35;;;;;;;6.38;1.95;;;;;;;;;;5021677;28;20049;-76
2021/01/29 10:26:23;;;;;;;7.65;2.15;;;;;;;;;;5011669;28;20507;-76
2021/01/29 10:29:00;;;;;;;7.30;2.35;;;;;;;;;;5012910;28;20045;-73
2021/01/29 10:31:26;;;;;;;9.77;2.90;;;;;;;;;;5016097;28;20034;-73
2021/01/29 10:34:13;;;;;;;5.70;2.08;;;;;;;;;;4994683;28;20124;-73
2021/01/29 10:36:39;;;;;;;7.38;2.33;;;;;;;;;;5011027;28;20114;-72
2021/01/29 10:39:12;;;;;;;7.65;1.88;;;;;;;;;;4977851;28;20104;-72
2021/01/29 10:42:02;;;;;;;8.05;2.20;;;;;;;;;;4996512;28;20048;-72
2021/01/29 10:44:29;;;;;;;7.10;2.40;;;;;;;;;;5014571;28;20036;-72
2021/01/29 10:47:42;;;;;;;9.35;2.40;;;;;;;;;;4979117;28;20115;-72
2021/01/29 10:50:10;;;;;;;;;;;;;;;;;;4971003;28;20030;-72
2021/01/29 10:52:44;;;;;;;6.68;2.00;;;;;;;;;;4955257;28;20361;-72
2021/01/29 10:55:25;;;;;;;6.88;1.98;;;;;;;;;;4972777;28;20408;-72
2021/01/29 10:58:24;;;;;;;4.25;1.65;;;;;;;;;;5007703;28;20039;-72
2021/01/29 11:01:21;;;;;;;8.43;2.17;;;;;;;;;;5005290;28;20026;-72
2021/01/29 11:03:55;;;;;;;6.65;2.10;;;;;;;;;;4986854;28;20053;-72
2021/01/29 11:06:24;;;;;;;5.97;1.70;;;;;;;;;;5012034;28;20034;-72
2021/01/29 11:08:55;;;;;;;6.10;2.35;;;;;;;;;;4994067;28;20538;-72
2021/01/29 11:11:33;;;;;;;6.35;2.05;;;;;;;;;;4979502;28;20399;-72
2021/01/29 11:14:15;;;;;;;5.95;2.22;;;;;;;;;;4992307;28;20396;-73
2021/01/29 11:17:03;;;;;;;9.70;2.58;;;;;;;;;;4992695;28;20460;-75
2021/01/29 11:19:40;;;;;;;6.22;2.35;;;;;;;;;;5011293;28;20049;-74
2021/01/29 11:22:27;;;;;;;9.00;2.35;;;;;;;;;;4994323;28;20040;-73
2021/01/29 11:25:07;;;;;;;8.50;2.33;;;;;;;;;;5011501;28;20057;-73
2021/01/29 11:27:49;;;;;;;7.32;2.42;;;;;;;;;;5011459;28;20038;-72
2021/01/29 11:30:31;;;;;;;7.90;2.50;;;;;;;;;;5010616;28;20056;-73
2021/01/29 11:32:59;;;;;;;6.47;2.67;;;;;;;;;;4993670;28;20038;-72
2021/01/29 11:35:50;;;;;;;4.88;2.05;;;;;;;;;;4994314;28;20111;-72
2021/01/29 11:38:18;;;;;;;6.35;1.70;;;;;;;;;;5012595;28;20045;-72
2021/01/29 11:40:55;;;;;;;7.68;1.70;;;;;;;;;;5010422;28;20068;-72
2021/01/29 11:43:54;;;;;;;6.30;1.95;;;;;;;;;;4994807;28;20543;-72
2021/01/29 11:46:27;;;;;;;9.27;2.85;;;;;;;;;;5011373;28;20096;-72
2021/01/29 11:49:01;;;;;;;9.00;2.13;;;;;;;;;;5010307;28;20026;-72
2021/01/29 11:51:41;;;;;;;4.03;1.45;;;;;;;;;;5011248;28;20113;-72
2021/01/29 11:54:12;;;;;;;5.05;1.83;;;;;;;;;;4993796;28;20037;-72
2021/01/29 11:56:46;;;;;;;6.45;2.45;;;;;;;;;;5010201;28;20037;-72
2021/01/29 11:59:46;;;;;;;8.13;1.90;;;;;;;;;;5010111;28;20033;-72
2021/01/29 12:02:30;;;;;;;7.43;2.45;;;;;;;;;;4997361;28;20112;-72
2021/01/29 12:05:06;;;;;;;10.35;2.55;;;;;;;;;;4998464;28;20037;-72
2021/01/29 12:07:37;;;;;;;9.25;3.15;;;;;;;;;;5024061;28;20038;-72
2021/01/29 12:10:34;;;;;;;7.05;2.70;;;;;;;;;;4998158;28;20026;-72
2021/01/29 12:13:21;;;;;;;6.55;2.72;;;;;;;;;;5013439;28;20115;-72
2021/01/29 12:15:58;;;;;;;9.27;3.20;;;;;;;;;;4997760;28;20034;-72
2021/01/29 12:18:23;;;;;;;7.38;2.13;;;;;;;;;;5013425;28;20511;-71
2021/01/29 12:20:49;;;;;;;9.98;2.63;;;;;;;;;;4991904;28;20042;-72
2021/01/29 12:23:22;;;;;;;5.15;2.20;;;;;;;;;;4997071;28;20498;-71
2021/01/29 12:26:32;;;;;;;7.60;2.70;;;;;;;;;;5013454;28;20080;-72
2021/01/29 12:29:29;;;;;;;8.32;2.83;;;;;;;;;;5009503;28;20053;-72
2021/01/29 12:32:03;;;;;;;8.63;3.60;;;;;;;;;;5013223;28;20054;-72
2021/01/29 12:34:41;;;;;;;10.27;2.63;;;;;;;;;;5013224;28;20037;-72
2021/01/29 12:37:18;;;;;;;8.55;2.65;;;;;;;;;;5020947;28;20472;-71
2021/01/29 12:39:51;;;;;;;8.57;2.65;;;;;;;;;;4998657;28;20038;-72
2021/01/29 12:42:35;;;;;;;8.10;2.38;;;;;;;;;;4997426;28;20506;-72
2021/01/29 12:45:02;;;;;;;7.82;2.70;;;;;;;;;;4999392;28;20380;-72
2021/01/29 12:47:48;;;;;;;10.05;3.17;;;;;;;;;;4997118;28;20036;-72
2021/01/29 12:50:42;;;;;;;12.13;3.35;;;;;;;;;;5013055;28;20052;-72
2021/01/29 12:53:20;;;;;;;6.60;2.00;;;;;;;;;;5000702;28;20402;-71
2021/01/29 12:55:55;;;;;;;9.05;2.65;;;;;;;;;;5012246;28;20038;-71
2021/01/29 12:58:21;;;;;;;8.98;2.15;;;;;;;;;;4994181;28;20112;-71
2021/01/29 13:00:46;;;;;;;7.93;2.42;;;;;;;;;;4995770;28;20030;-71
2021/01/29 13:03:17;;;;;;;7.50;2.08;;;;;;;;;;4995279;28;20088;-71
2021/01/29 13:06:02;;;;;;;7.55;2.03;;;;;;;;;;5013887;28;20073;-71
2021/01/29 13:08:50;;;;;;;8.73;1.95;;;;;;;;;;5013528;28;20030;-71
2021/01/29 13:11:44;;;;;;;6.13;1.88;;;;;;;;;;4997151;28;20035;-72
2021/01/29 13:14:23;;;;;;;6.97;1.70;;;;;;;;;;4994349;28;20034;-71
2021/01/29 13:17:26;;;;;;;6.00;2.08;;;;;;;;;;4980184;28;20042;-71
2021/01/29 13:20:03;;;;;;;6.75;2.15;;;;;;;;;;5013745;28;20073;-71
2021/01/29 13:22:36;;;;;;;7.38;2.03;;;;;;;;;;5014671;28;20038;-71
2021/01/29 13:25:20;;;;;;;6.93;2.17;;;;;;;;;;5011702;28;20400;-71
2021/01/29 13:28:12;;;;;;;6.70;2.47;;;;;;;;;;5013417;28;20033;-71
2021/01/29 13:30:39;;;;;;;4.72;2.22;;;;;;;;;;4998522;28;20438;-71
2021/01/29 13:33:15;;;;;;;7.05;1.90;;;;;;;;;;4995276;28;20034;-71
2021/01/29 13:35:40;;;;;;;4.95;1.58;;;;;;;;;;4996510;28;20026;-71
2021/01/29 13:38:26;;;;;;;5.82;1.85;;;;;;;;;;4995506;28;20060;-71
2021/01/29 13:40:52;;;;;;;5.05;1.50;;;;;;;;;;5012783;28;20500;-71
2021/01/29 13:43:29;;;;;;;6.03;1.95;;;;;;;;;;4995354;28;20056;-71
2021/01/29 13:45:59;;;;;;;4.32;1.63;;;;;;;;;;4995418;28;20061;-71
2021/01/29 13:48:25;;;;;;;8.25;2.33;;;;;;;;;;4996140;28;20042;-71
2021/01/29 13:50:59;;;;;;;5.32;1.50;;;;;;;;;;4995272;28;20112;-71
2021/01/29 13:53:27;;;;;;;7.72;1.90;;;;;;;;;;4995208;28;20108;-71
2021/01/29 13:55:55;;;;;;;6.15;1.38;;;;;;;;;;5012631;28;20117;-71
2021/01/29 13:58:27;;;;;;;7.53;1.40;;;;;;;;;;4996926;28;20037;-71
2021/01/29 14:01:06;;;;;;;5.47;1.95;;;;;;;;;;4996255;28;20061;-71
2021/01/29 14:03:43;;;;;;;9.10;2.45;;;;;;;;;;5012793;28;20033;-71
2021/01/29 14:06:08;;;;;;;11.13;2.30;;;;;;;;;;5003333;28;20038;-70
2021/01/29 14:08:36;;;;;;;5.82;1.50;;;;;;;;;;4978971;28;20408;-70
2021/01/29 14:11:24;;;;;;;4.63;1.63;;;;;;;;;;4993076;28;20042;-70
2021/01/29 14:13:55;;;;;;;6.18;1.60;;;;;;;;;;5030955;28;20045;-70
2021/01/29 14:16:27;;;;;;;5.53;1.40;;;;;;;;;;5023257;28;20037;-70
2021/01/29 14:19:34;;;;;;;4.35;1.73;;;;;;;;;;5007663;28;20033;-70
2021/01/29 14:22:09;;;;;;;4.55;1.25;;;;;;;;;;5014866;28;20042;-71
2021/01/29 14:24:57;;;;;;;4.70;1.48;;;;;;;;;;4979322;28;20088;-72
2021/01/29 14:27:40;;;;;;;6.20;1.77;;;;;;;;;;5010258;28;20089;-75
2021/01/29 14:30:06;;;;;;;6.13;1.60;;;;;;;;;;5010514;28;20026;-75
2021/01/29 14:32:53;;;;;;;5.93;1.70;;;;;;;;;;5011727;28;20041;-76
2021/01/29 14:35:28;;;;;;;4.97;1.58;;;;;;;;;;5012335;28;20030;-76
2021/01/29 14:38:07;;;;;;;5.72;2.38;;;;;;;;;;4995731;28;20037;-76
2021/01/29 14:40:54;;;;;;;6.50;2.08;;;;;;;;;;5012186;28;20069;-75
2021/01/29 14:43:32;;;;;;;3.80;1.27;;;;;;;;;;5010748;28;20439;-76
2021/01/29 14:46:02;;;;;;;3.78;1.20;;;;;;;;;;4991696;28;20037;-76
2021/01/29 14:48:49;;;;;;;4.18;1.40;;;;;;;;;;4994875;28;20108;-75
2021/01/29 14:51:23;;;;;;;4.20;1.27;;;;;;;;;;5012745;28;20120;-75
2021/01/29 14:54:18;;;;;;;5.18;1.05;;;;;;;;;;5011365;28;20164;-74
2021/01/29 14:57:03;;;;;;;3.55;0.85;;;;;;;;;;4974032;28;20049;-74
2021/01/29 14:59:35;;;;;;;14.75;1.67;;;;;;;;;;4991013;28;20057;-75
2021/01/29 15:02:08;;;;;;;4.65;1.30;;;;;;;;;;4991297;28;20058;-73
2021/01/29 15:04:36;;;;;;;3.90;1.13;;;;;;;;;;4991306;28;20038;-73
2021/01/29 15:07:33;;;;;;;5.65;1.48;;;;;;;;;;4990558;28;20477;-73
2021/01/29 15:10:09;;;;;;;7.88;2.33;;;;;;;;;;4974945;28;20047;-72
2021/01/29 15:12:45;;;;;;;5.82;1.38;;;;;;;;;;4991058;28;20038;-72
2021/01/29 15:15:20;;;;;;;3.45;1.27;;;;;;;;;;4990540;28;20038;-72
2021/01/29 15:17:52;;;;;;;4.28;1.75;;;;;;;;;;5003564;28;20041;-72
2021/01/29 15:20:46;;;;;;;4.57;0.93;;;;;;;;;;5010263;28;20036;-72
2021/01/29 15:23:24;;;;;;;4.43;1.73;;;;;;;;;;5010003;28;20037;-72
2021/01/29 15:25:52;;;;;;;3.90;1.25;;;;;;;;;;5011625;28;20045;-72
2021/01/29 15:28:27;;;;;;;4.28;1.38;;;;;;;;;;5011176;28;20030;-72
2021/01/29 15:30:52;;;;;;;3.50;1.10;;;;;;;;;;5011508;28;20030;-73
2021/01/29 15:33:30;;;;;;;3.22;1.20;;;;;;;;;;4993609;28;20042;-72
2021/01/29 15:36:13;;;;;;;3.20;1.02;;;;;;;;;;5011555;28;20112;-74
2021/01/29 15:38:49;;;;;;;3.22;1.05;;;;;;;;;;5025800;28;20116;-73
2021/01/29 15:41:23;;;;;;;3.63;1.27;;;;;;;;;;5035060;28;20120;-73
2021/01/29 15:43:50;;;;;;;6.07;1.40;;;;;;;;;;5034701;28;20044;-73
2021/01/29 15:46:38;;;;;;;3.38;1.05;;;;;;;;;;5002616;28;20487;-73
2021/01/29 15:49:19;;;;;;;3.20;1.10;;;;;;;;;;5014097;28;20025;-72
2021/01/29 15:51:44;;;;;;;2.15;0.70;;;;;;;;;;5014207;28;20038;-72
2021/01/29 15:54:14;;;;;;;5.43;1.65;;;;;;;;;;5015018;28;20064;-72